This is the latest recevied weather packets stored in our database for station/object WB8SKP-WX. If no packets are shown the sender has not sent any weather packets the latest 10 day(s).
| Time | Temp. | Humidity | Pressure | Rain* | Wind** | Luminosity | Snow |
|---|---|---|---|---|---|---|---|
| 1777234626 | 26.67° C | 47% | 993 hPa | 0 mm | - | - | - |
| 1777233424 | 26.67° C | 48% | 993.2 hPa | 0 mm | - | - | - |
| 1777232194 | 26.11° C | 46% | 993.3 hPa | 0 mm | - | - | - |
| 1777230994 | 26.11° C | 45% | 993.4 hPa | 0 mm | - | - | - |
| 1777229794 | 25.56° C | 46% | 993.6 hPa | 0 mm | - | - | - |
| 1777228564 | 25.56° C | 49% | 993.9 hPa | 0 mm | - | - | - |
| 1777227364 | 25.56° C | 50% | 994 hPa | 0 mm | - | - | - |
| 1777226134 | 25° C | 50% | 994.1 hPa | 0 mm | - | - | - |
| 1777224934 | 25° C | 50% | 994.4 hPa | 0 mm | - | - | - |
| 1777223734 | 25° C | 50% | 994.6 hPa | 0 mm | - | - | - |
| 1777222504 | 24.44° C | 53% | 994.7 hPa | 0 mm | - | - | - |
| 1777221304 | 24.44° C | 60% | 994.8 hPa | 0 mm | - | - | - |
| 1777220104 | 23.89° C | 61% | 995 hPa | 0 mm | - | - | - |
| 1777218874 | 23.33° C | 64% | 995.1 hPa | 0 mm | - | - | - |
| 1777217674 | 22.78° C | 66% | 995.2 hPa | 0 mm | - | - | - |
| 1777216444 | 22.22° C | 67% | 995.1 hPa | 0 mm | - | - | - |
| 1777215244 | 21.67° C | 67% | 994.9 hPa | 0 mm | - | - | - |
| 1777214014 | 21.11° C | 70% | 994.9 hPa | 0 mm | - | - | - |
| 1777212814 | 21.11° C | 70% | 994.9 hPa | 0 mm | - | - | - |
| 1777211584 | 20° C | 75% | 994.6 hPa | 0 mm | - | - | - |
| 1777210384 | 19.44° C | 75% | 994.6 hPa | 0 mm | - | - | - |
| 1777209154 | 18.33° C | 78% | 994.3 hPa | 0 mm | - | - | - |
| 1777207954 | 17.78° C | 81% | 993.9 hPa | 0 mm | - | - | - |
| 1777206754 | 15.56° C | 89% | 993.8 hPa | 0 mm | - | - | - |
| 1777205524 | 12.78° C | 99% | 993.8 hPa | 0 mm | - | - | - |
* Rain latest hour (hover to see other rain measurements)
** Current wind speed in m/s (hover to see current wind gust speed)